Terminal Aerodrome Forecast
Issued by NWS

Home | Current Version | Previous Version | Text Only | Print | Product List | Glossary Off
Versions: 1 2 3 4 5 6 7 8 9 10 11 12 13 14 15 16 17 18 19

000
FTUS43 KMPX 281700
TAFRWF
TAF
KRWF 281720Z 2818/2918 13010G16KT P6SM -DZ SCT007 BKN014 OVC035
      TEMPO 2818/2820 6SM -SHRA BR OVC007
     FM290200 13005KT 5SM BR VCSH OVC007
     FM290700 12008KT 3SM -DZ BR OVC004
     FM291500 19004KT 5SM BR OVC007=

USA.gov is the U.S. government's official web portal to all federal, state and local government web resources and services.